createdAt,value
2023-10-31T00:00:41.699Z,8.50
2023-10-31T00:03:11.869Z,8.80
2023-10-31T00:05:41.923Z,8.02
2023-10-31T00:08:11.818Z,9.70
2023-10-31T00:10:45.864Z,8.40
2023-10-31T00:13:15.747Z,7.38
2023-10-31T00:15:46.332Z,9.23
2023-10-31T00:18:16.521Z,7.85
2023-10-31T00:20:47.946Z,7.50
2023-10-31T00:23:17.785Z,8.02
2023-10-31T00:25:48.284Z,9.00
2023-10-31T00:28:18.284Z,8.07
2023-10-31T00:30:48.604Z,8.07
2023-10-31T00:33:18.425Z,7.38
2023-10-31T00:35:48.224Z,7.53
2023-10-31T00:38:18.074Z,6.78
2023-10-31T00:40:47.978Z,7.68
2023-10-31T00:43:17.794Z,7.60
2023-10-31T00:45:47.811Z,8.13
2023-10-31T00:48:17.802Z,7.20
2023-10-31T00:50:48.213Z,7.93
2023-10-31T00:53:18.493Z,7.72
2023-10-31T00:55:48.786Z,7.10
2023-10-31T00:58:18.612Z,7.13
2023-10-31T01:00:49.002Z,7.32
2023-10-31T01:03:19.074Z,7.32
2023-10-31T01:05:49.023Z,7.90
2023-10-31T01:08:21.965Z,7.85
2023-10-31T01:10:52.293Z,7.20
2023-10-31T01:13:22.410Z,7.68
2023-10-31T01:15:53.098Z,6.78
2023-10-31T01:18:22.917Z,6.40
2023-10-31T01:20:52.972Z,6.82
2023-10-31T01:23:24.002Z,7.82
2023-10-31T01:25:54.433Z,7.47
2023-10-31T01:28:24.329Z,7.68
2023-10-31T01:30:54.698Z,6.95
2023-10-31T01:33:24.700Z,7.10
2023-10-31T01:35:55.153Z,7.05
2023-10-31T01:38:25.011Z,6.28
2023-10-31T01:40:54.929Z,7.40
2023-10-31T01:43:35.097Z,7.15
2023-10-31T01:46:05.903Z,6.85
2023-10-31T01:48:36.236Z,7.07
2023-10-31T01:51:07.096Z,6.88
2023-10-31T01:53:38.013Z,6.65
2023-10-31T01:56:08.608Z,7.07
2023-10-31T01:58:39.582Z,6.85
2023-10-31T02:01:10.193Z,7.28
2023-10-31T02:03:40.199Z,6.85
2023-10-31T02:06:10.051Z,7.10
2023-10-31T02:08:40.131Z,6.57
2023-10-31T02:11:11.731Z,6.38
2023-10-31T02:13:41.756Z,6.32
2023-10-31T02:16:12.488Z,5.20
2023-10-31T02:18:42.554Z,6.20
2023-10-31T02:21:12.617Z,6.13
2023-10-31T02:23:42.604Z,6.03
2023-10-31T02:26:13.019Z,6.85
2023-10-31T02:28:43.851Z,6.13
2023-10-31T02:31:14.236Z,6.32
2023-10-31T02:33:44.282Z,6.20
2023-10-31T02:36:14.789Z,7.28
2023-10-31T02:38:44.911Z,6.60
2023-10-31T02:41:16.003Z,5.90
2023-10-31T02:43:46.603Z,6.18
2023-10-31T02:46:17.755Z,6.32
2023-10-31T02:48:47.790Z,6.65
2023-10-31T02:51:18.453Z,6.57
2023-10-31T02:53:48.472Z,6.55
2023-10-31T02:56:20.704Z,7.15
2023-10-31T02:58:50.997Z,6.80
2023-10-31T03:01:21.192Z,6.40
2023-10-31T03:03:51.090Z,7.30
2023-10-31T03:06:20.922Z,6.47
2023-10-31T03:08:50.992Z,7.13
2023-10-31T03:11:28.522Z,7.35
2023-10-31T03:13:58.837Z,7.15
2023-10-31T03:16:29.659Z,7.30
2023-10-31T03:19:00.379Z,7.13
2023-10-31T03:21:30.568Z,7.10
2023-10-31T03:24:01.112Z,7.30
2023-10-31T03:26:31.305Z,7.22
2023-10-31T03:29:01.583Z,7.47
2023-10-31T03:31:32.173Z,7.38
2023-10-31T03:34:02.184Z,6.80
2023-10-31T03:36:33.316Z,7.38
2023-10-31T03:39:03.816Z,7.80
2023-10-31T03:41:34.516Z,8.00
2023-10-31T03:44:04.641Z,7.03
2023-10-31T03:46:35.143Z,7.40
2023-10-31T03:49:05.289Z,7.50
2023-10-31T03:51:36.247Z,7.18
2023-10-31T03:54:06.393Z,7.97
2023-10-31T03:56:44.683Z,7.32
2023-10-31T03:59:14.770Z,6.75
2023-10-31T04:01:45.630Z,7.75
2023-10-31T04:04:15.778Z,7.20
2023-10-31T04:06:46.623Z,7.75
2023-10-31T04:09:16.488Z,7.50
2023-10-31T04:11:47.211Z,7.45
2023-10-31T04:14:17.507Z,7.88
2023-10-31T04:16:48.142Z,8.15
2023-10-31T04:19:18.374Z,7.68
2023-10-31T04:21:48.368Z,8.07
2023-10-31T04:24:18.361Z,7.32
2023-10-31T04:26:49.139Z,8.98
2023-10-31T04:29:19.221Z,7.88
2023-10-31T04:31:49.357Z,7.30
2023-10-31T04:34:19.248Z,7.75
2023-10-31T04:36:50.019Z,7.93
2023-10-31T04:39:20.270Z,9.02
2023-10-31T04:41:50.838Z,8.27
2023-10-31T04:44:20.986Z,8.02
2023-10-31T04:46:51.427Z,9.10
2023-10-31T04:49:21.968Z,8.60
2023-10-31T04:51:52.232Z,8.63
2023-10-31T04:54:22.338Z,8.27
2023-10-31T04:56:52.676Z,9.07
2023-10-31T04:59:22.549Z,9.00
2023-10-31T05:01:53.636Z,8.27
2023-10-31T05:04:23.871Z,8.27
2023-10-31T05:06:54.588Z,8.60
2023-10-31T05:09:24.865Z,8.38
2023-10-31T05:11:56.376Z,8.48
2023-10-31T05:14:26.611Z,8.88
2023-10-31T05:16:57.476Z,7.25
2023-10-31T05:19:27.777Z,7.97
2023-10-31T05:21:58.237Z,8.80
2023-10-31T05:24:28.263Z,7.85
2023-10-31T05:26:58.829Z,7.57
2023-10-31T05:29:29.288Z,8.27
2023-10-31T05:32:00.090Z,8.57
2023-10-31T05:34:30.434Z,8.25
2023-10-31T05:37:00.632Z,8.52
2023-10-31T05:39:30.685Z,9.27
2023-10-31T05:42:01.202Z,8.73
2023-10-31T05:44:31.133Z,7.72
2023-10-31T05:47:01.698Z,8.85
2023-10-31T05:49:31.736Z,9.00
2023-10-31T05:52:02.468Z,8.60
2023-10-31T05:54:32.293Z,8.57
2023-10-31T05:57:02.643Z,9.02
2023-10-31T05:59:33.557Z,8.68
2023-10-31T06:02:03.484Z,8.85
2023-10-31T06:04:33.565Z,9.70
2023-10-31T06:07:04.250Z,9.48
2023-10-31T06:09:34.950Z,8.95
2023-10-31T06:12:07.054Z,9.32
2023-10-31T06:14:38.459Z,9.13
2023-10-31T06:17:08.725Z,9.00
2023-10-31T06:19:38.655Z,9.43
2023-10-31T06:22:08.824Z,10.15
2023-10-31T06:24:38.657Z,9.15
2023-10-31T06:27:09.054Z,9.18
2023-10-31T06:29:50.133Z,9.48
2023-10-31T06:32:29.374Z,9.07
2023-10-31T06:34:59.667Z,8.60
2023-10-31T06:37:30.041Z,9.32
2023-10-31T06:40:00.235Z,10.32
2023-10-31T06:42:31.841Z,9.82
2023-10-31T06:45:01.616Z,9.82
2023-10-31T06:47:32.185Z,10.32
2023-10-31T06:50:02.462Z,8.85
2023-10-31T06:52:32.385Z,9.32
2023-10-31T06:55:02.430Z,10.27
2023-10-31T06:57:32.783Z,10.45
2023-10-31T07:00:02.878Z,10.60
2023-10-31T07:02:33.283Z,9.23
2023-10-31T07:05:04.760Z,9.45
2023-10-31T07:07:35.242Z,9.75
2023-10-31T07:10:06.013Z,10.25
2023-10-31T07:12:35.798Z,10.40
2023-10-31T07:15:06.554Z,10.02
2023-10-31T07:17:37.239Z,10.57
2023-10-31T07:20:08.120Z,10.38
2023-10-31T07:22:38.144Z,10.18
2023-10-31T07:25:08.624Z,10.25
2023-10-31T07:27:38.673Z,10.05
2023-10-31T07:30:08.947Z,10.02
2023-10-31T07:32:40.392Z,10.38
2023-10-31T07:35:10.972Z,9.38
2023-10-31T07:37:41.505Z,10.27
2023-10-31T07:40:12.567Z,9.68
2023-10-31T07:42:43.038Z,9.75
2023-10-31T07:45:13.408Z,10.90
2023-10-31T07:47:43.780Z,9.98
2023-10-31T07:50:14.900Z,10.23
2023-10-31T07:52:47.647Z,10.48
2023-10-31T07:55:17.853Z,9.25
2023-10-31T07:57:48.938Z,9.85
2023-10-31T08:00:18.921Z,9.75
2023-10-31T08:02:49.433Z,9.77
2023-10-31T08:05:19.394Z,10.35
2023-10-31T08:07:49.950Z,9.43
2023-10-31T08:10:20.304Z,10.85
2023-10-31T08:12:50.792Z,11.00
2023-10-31T08:15:20.961Z,9.25
2023-10-31T08:17:51.031Z,8.85
2023-10-31T08:20:21.416Z,9.43
2023-10-31T08:22:51.518Z,9.10
2023-10-31T08:25:21.596Z,8.63
2023-10-31T08:27:51.868Z,8.88
2023-10-31T08:30:21.988Z,10.13
2023-10-31T08:32:53.911Z,11.60
2023-10-31T08:35:23.760Z,9.80
2023-10-31T08:37:55.055Z,11.00
2023-10-31T08:40:25.326Z,10.05
2023-10-31T08:42:56.174Z,8.90
2023-10-31T08:45:26.094Z,9.25
2023-10-31T08:47:56.434Z,9.27
2023-10-31T08:50:26.309Z,9.85
2023-10-31T08:52:56.981Z,9.23
2023-10-31T08:55:26.844Z,9.45
2023-10-31T08:57:57.297Z,9.50
2023-10-31T09:00:29.448Z,9.73
2023-10-31T09:02:59.947Z,8.80
2023-10-31T09:05:29.934Z,8.70
2023-10-31T09:08:00.331Z,8.48
2023-10-31T09:10:30.217Z,9.63
2023-10-31T09:12:59.994Z,9.07
2023-10-31T09:15:29.804Z,7.78
2023-10-31T09:17:59.644Z,8.52
2023-10-31T09:20:30.882Z,7.20
2023-10-31T09:23:01.493Z,7.22
2023-10-31T09:25:31.657Z,7.68
2023-10-31T09:28:04.429Z,6.57
2023-10-31T09:30:34.304Z,7.10
2023-10-31T09:33:06.726Z,7.55
2023-10-31T09:35:36.709Z,6.97
2023-10-31T09:38:07.414Z,6.95
2023-10-31T09:40:42.404Z,7.93
2023-10-31T09:43:12.753Z,7.07
2023-10-31T09:45:42.885Z,8.98
2023-10-31T09:48:13.561Z,10.13
2023-10-31T09:50:44.314Z,8.40
2023-10-31T09:53:17.774Z,8.63
2023-10-31T09:55:47.991Z,7.53
2023-10-31T09:58:18.465Z,7.38
2023-10-31T10:00:48.384Z,7.10
2023-10-31T10:03:19.937Z,7.68
2023-10-31T10:05:50.744Z,9.57
2023-10-31T10:08:21.582Z,7.60
2023-10-31T10:10:52.764Z,7.55
2023-10-31T10:13:23.500Z,7.60
2023-10-31T10:15:55.115Z,8.82
2023-10-31T10:18:30.231Z,7.60
2023-10-31T10:21:02.293Z,8.77
2023-10-31T10:23:36.390Z,8.25
2023-10-31T10:26:06.752Z,8.23
2023-10-31T10:28:37.675Z,9.60
2023-10-31T10:31:07.683Z,10.15
2023-10-31T10:33:40.114Z,9.88
2023-10-31T10:36:11.700Z,10.43
2023-10-31T10:38:44.521Z,11.38
2023-10-31T10:41:17.353Z,12.05
2023-10-31T10:43:48.724Z,12.75
2023-10-31T10:46:21.031Z,14.20
2023-10-31T10:48:55.505Z,12.35
2023-10-31T10:51:46.926Z,12.43
2023-10-31T10:54:25.884Z,15.13
2023-10-31T10:56:59.964Z,12.45
2023-10-31T10:59:44.215Z,16.90
2023-10-31T11:02:15.626Z,13.45
2023-10-31T11:04:45.897Z,13.88
2023-10-31T11:07:18.860Z,14.60
2023-10-31T11:09:49.986Z,14.15
2023-10-31T11:12:20.918Z,10.82
2023-10-31T11:14:51.241Z,9.73
2023-10-31T11:17:33.158Z,9.13
2023-10-31T11:20:05.098Z,12.90
2023-10-31T11:22:41.645Z,13.25
2023-10-31T11:25:31.501Z,13.70
2023-10-31T11:28:17.225Z,13.50
2023-10-31T11:30:49.953Z,14.48
2023-10-31T11:33:22.648Z,15.77
2023-10-31T11:36:04.883Z,16.42
2023-10-31T11:38:39.232Z,12.40
2023-10-31T11:41:10.511Z,11.68
2023-10-31T11:43:40.663Z,9.55
2023-10-31T11:46:26.260Z,8.70
2023-10-31T11:48:57.856Z,8.23
2023-10-31T11:51:28.883Z,7.28
2023-10-31T11:54:00.788Z,8.13
2023-10-31T11:56:31.215Z,7.90
2023-10-31T11:59:05.662Z,7.78
2023-10-31T12:01:46.100Z,8.48
2023-10-31T12:04:24.529Z,8.75
2023-10-31T12:06:59.943Z,8.00
2023-10-31T12:09:31.467Z,9.02
2023-10-31T12:12:04.272Z,8.75
2023-10-31T12:14:34.671Z,8.48
2023-10-31T12:17:06.108Z,7.88
2023-10-31T12:19:36.016Z,7.10
2023-10-31T12:22:14.774Z,7.70
2023-10-31T12:24:44.708Z,7.35
2023-10-31T12:27:15.686Z,7.80
2023-10-31T12:29:45.704Z,8.55
2023-10-31T12:32:15.623Z,8.52
2023-10-31T12:34:45.422Z,7.63
2023-10-31T12:37:15.889Z,7.55
2023-10-31T12:39:50.994Z,7.38
2023-10-31T12:42:22.629Z,7.37
2023-10-31T12:44:52.550Z,7.28
2023-10-31T12:47:23.539Z,7.05
2023-10-31T12:50:13.322Z,7.80
2023-10-31T12:52:47.585Z,7.57
2023-10-31T12:55:22.202Z,7.00
2023-10-31T12:57:53.103Z,8.13
2023-10-31T13:00:31.312Z,7.13
2023-10-31T13:03:03.447Z,6.60
2023-10-31T13:05:34.321Z,6.18
2023-10-31T13:08:07.370Z,6.50
2023-10-31T13:10:37.482Z,6.43
2023-10-31T13:13:07.301Z,6.32
2023-10-31T13:15:39.012Z,5.07
2023-10-31T13:18:12.322Z,5.88
2023-10-31T13:20:43.267Z,6.10
2023-10-31T13:23:13.436Z,6.35
2023-10-31T13:25:43.504Z,5.35
2023-10-31T13:28:15.178Z,5.80
2023-10-31T13:30:46.882Z,5.68
2023-10-31T13:33:16.781Z,5.60
2023-10-31T13:35:47.078Z,5.72
2023-10-31T13:38:17.525Z,5.38
2023-10-31T13:40:47.544Z,5.78
2023-10-31T13:43:18.159Z,6.05
2023-10-31T13:45:47.979Z,5.40
2023-10-31T13:48:17.794Z,5.43
2023-10-31T13:50:47.764Z,5.45
2023-10-31T13:53:17.960Z,4.68
2023-10-31T13:55:47.854Z,5.30
2023-10-31T13:58:18.219Z,5.95
2023-10-31T14:00:48.166Z,5.93
2023-10-31T14:03:19.166Z,6.82
2023-10-31T14:05:49.242Z,5.95
2023-10-31T14:08:21.056Z,6.47
2023-10-31T14:10:51.751Z,6.50
2023-10-31T14:13:22.087Z,6.93
2023-10-31T14:15:51.991Z,6.40
2023-10-31T14:18:22.279Z,7.63
2023-10-31T14:20:53.121Z,7.47
2023-10-31T14:23:22.959Z,7.25
2023-10-31T14:25:52.759Z,6.22
2023-10-31T14:28:22.618Z,6.20
2023-10-31T14:30:53.437Z,5.53
2023-10-31T14:33:24.674Z,5.75
2023-10-31T14:35:54.602Z,5.38
2023-10-31T14:38:24.994Z,5.22
2023-10-31T14:40:54.952Z,5.53
2023-10-31T14:43:24.815Z,5.40
2023-10-31T14:45:55.577Z,5.93
2023-10-31T14:48:26.242Z,4.93
2023-10-31T14:50:58.109Z,5.40
2023-10-31T14:53:28.464Z,4.85
2023-10-31T14:55:58.388Z,4.90
2023-10-31T14:58:28.717Z,4.65
2023-10-31T15:00:58.569Z,4.95
2023-10-31T15:03:28.580Z,4.18
2023-10-31T15:05:59.337Z,4.55
2023-10-31T15:08:29.293Z,5.53
2023-10-31T15:10:59.203Z,5.28
2023-10-31T15:13:29.021Z,5.13
2023-10-31T15:15:58.945Z,4.90
2023-10-31T15:18:28.917Z,3.97
2023-10-31T15:20:58.945Z,4.90
2023-10-31T15:23:31.225Z,4.80
2023-10-31T15:26:01.890Z,5.75
2023-10-31T15:28:32.349Z,6.13
2023-10-31T15:31:02.232Z,7.00
2023-10-31T15:33:32.481Z,5.90
2023-10-31T15:36:02.620Z,7.00
2023-10-31T15:38:32.603Z,6.25
2023-10-31T15:41:10.950Z,6.75
2023-10-31T15:43:46.614Z,6.70
2023-10-31T15:46:16.723Z,6.97
2023-10-31T15:48:47.285Z,6.97
2023-10-31T15:51:17.236Z,6.00
2023-10-31T15:53:47.856Z,5.72
2023-10-31T15:56:17.797Z,6.13
2023-10-31T15:58:48.259Z,5.10
2023-10-31T16:01:18.196Z,5.00
2023-10-31T16:03:48.805Z,4.28
2023-10-31T16:06:18.749Z,4.05
2023-10-31T16:08:48.673Z,4.05
2023-10-31T16:11:18.525Z,4.10
2023-10-31T16:13:49.026Z,3.67
2023-10-31T16:16:19.197Z,3.58
2023-10-31T16:18:49.723Z,4.30
2023-10-31T16:21:23.583Z,3.55
2023-10-31T16:23:54.251Z,3.17
2023-10-31T16:26:24.198Z,3.47
2023-10-31T16:28:54.483Z,3.60
2023-10-31T16:31:25.052Z,3.47
2023-10-31T16:33:54.897Z,3.45
2023-10-31T16:36:25.877Z,3.97
2023-10-31T16:38:56.257Z,3.28
2023-10-31T16:41:27.050Z,3.35
2023-10-31T16:43:57.775Z,3.15
2023-10-31T16:46:27.899Z,2.55
2023-10-31T16:48:57.956Z,2.47
2023-10-31T16:51:28.266Z,2.50
2023-10-31T16:53:59.446Z,2.13
2023-10-31T16:56:29.331Z,2.35
2023-10-31T16:59:01.670Z,2.72
2023-10-31T17:01:31.958Z,2.67
2023-10-31T17:04:01.944Z,2.78
2023-10-31T17:06:31.874Z,2.88
2023-10-31T17:09:02.304Z,2.50
2023-10-31T17:11:32.276Z,2.55
2023-10-31T17:14:04.125Z,2.58
2023-10-31T17:16:34.061Z,2.53
2023-10-31T17:19:04.452Z,2.75
2023-10-31T17:21:34.306Z,3.45
2023-10-31T17:24:04.528Z,3.40
2023-10-31T17:26:34.484Z,2.95
2023-10-31T17:29:04.688Z,2.80
2023-10-31T17:31:36.042Z,2.92
2023-10-31T17:34:05.983Z,3.42
2023-10-31T17:36:35.878Z,5.00
2023-10-31T17:39:05.775Z,3.55
2023-10-31T17:41:36.101Z,3.58
2023-10-31T17:44:06.185Z,4.80
2023-10-31T17:46:36.046Z,4.13
2023-10-31T17:49:07.946Z,3.72
2023-10-31T17:51:42.637Z,3.45
2023-10-31T17:54:13.731Z,2.65
2023-10-31T17:56:43.883Z,3.00
2023-10-31T17:59:13.811Z,2.70
2023-10-31T18:01:43.949Z,2.70
2023-10-31T18:04:14.513Z,3.03
2023-10-31T18:06:44.959Z,2.90
2023-10-31T18:09:15.434Z,2.80
2023-10-31T18:11:45.393Z,2.88
2023-10-31T18:14:15.851Z,2.70
2023-10-31T18:16:45.952Z,2.92
2023-10-31T18:19:16.262Z,2.40
2023-10-31T18:21:46.678Z,2.40
2023-10-31T18:24:17.055Z,2.17
2023-10-31T18:26:46.942Z,3.05
2023-10-31T18:29:17.419Z,2.80
2023-10-31T18:31:47.917Z,2.80
2023-10-31T18:34:18.234Z,2.92
2023-10-31T18:36:48.497Z,2.90
2023-10-31T18:39:18.941Z,2.60
2023-10-31T18:41:59.818Z,2.65
2023-10-31T18:44:46.065Z,2.40
2023-10-31T18:47:23.910Z,2.53
2023-10-31T18:49:53.904Z,2.47
2023-10-31T18:52:23.819Z,2.80
2023-10-31T18:54:56.020Z,3.17
2023-10-31T18:57:26.502Z,3.15
2023-10-31T18:59:58.407Z,3.10
2023-10-31T19:02:28.641Z,3.40
2023-10-31T19:04:58.857Z,3.90
2023-10-31T19:07:28.691Z,4.10
2023-10-31T19:09:58.471Z,4.05
2023-10-31T19:12:28.360Z,3.90
2023-10-31T19:14:58.261Z,3.80
2023-10-31T19:17:28.107Z,4.32
2023-10-31T19:19:57.961Z,4.28
2023-10-31T19:22:27.833Z,4.07
2023-10-31T19:24:57.706Z,4.03
2023-10-31T19:27:27.496Z,4.22
2023-10-31T19:29:59.087Z,4.30
2023-10-31T19:32:29.099Z,4.30
2023-10-31T19:34:59.563Z,4.57
2023-10-31T19:37:29.486Z,3.97
2023-10-31T19:39:59.407Z,4.70
2023-10-31T19:42:29.243Z,4.97
2023-10-31T19:44:59.216Z,6.00
2023-10-31T19:47:29.285Z,4.75
2023-10-31T19:49:59.348Z,4.57
2023-10-31T19:52:29.209Z,4.68
2023-10-31T19:54:59.090Z,4.63
2023-10-31T19:57:28.936Z,3.63
2023-10-31T19:59:58.815Z,4.82
2023-10-31T20:02:28.710Z,4.68
2023-10-31T20:04:58.618Z,4.13
2023-10-31T20:07:28.552Z,4.47
2023-10-31T20:09:58.916Z,3.75
2023-10-31T20:12:28.981Z,4.32
2023-10-31T20:15:02.007Z,4.60
2023-10-31T20:17:33.953Z,5.05
2023-10-31T20:20:07.938Z,4.43
2023-10-31T20:22:38.170Z,4.85
2023-10-31T20:25:09.659Z,3.75
2023-10-31T20:27:39.825Z,4.22
2023-10-31T20:30:10.407Z,4.05
2023-10-31T20:32:40.571Z,4.05
2023-10-31T20:35:11.026Z,4.35
2023-10-31T20:37:41.288Z,4.18
2023-10-31T20:40:11.840Z,4.10
2023-10-31T20:42:42.154Z,3.45
2023-10-31T20:45:13.327Z,4.15
2023-10-31T20:47:43.513Z,4.32
2023-10-31T20:50:15.674Z,3.95
2023-10-31T20:52:45.818Z,3.55
2023-10-31T20:55:17.853Z,4.03
2023-10-31T20:57:47.827Z,3.97
2023-10-31T21:00:21.143Z,3.40
2023-10-31T21:02:51.230Z,3.20
2023-10-31T21:05:22.405Z,3.03
2023-10-31T21:07:52.624Z,2.58
2023-10-31T21:10:23.698Z,2.00
2023-10-31T21:12:54.020Z,3.10
2023-10-31T21:15:24.944Z,2.40
2023-10-31T21:17:55.136Z,2.28
2023-10-31T21:20:25.795Z,1.52
2023-10-31T21:22:57.338Z,1.35
2023-10-31T21:25:28.205Z,1.80
2023-10-31T21:27:58.629Z,1.90
2023-10-31T21:30:29.977Z,1.73
2023-10-31T21:33:00.316Z,2.08
2023-10-31T21:35:31.152Z,1.70
2023-10-31T21:38:01.185Z,1.70
2023-10-31T21:40:31.086Z,1.73
2023-10-31T21:43:00.950Z,1.10
2023-10-31T21:45:30.860Z,0.93
2023-10-31T21:48:00.811Z,0.93
2023-10-31T21:50:30.703Z,1.10
2023-10-31T21:53:00.762Z,1.00
2023-10-31T21:55:30.862Z,1.25
2023-10-31T21:58:01.235Z,0.73
2023-10-31T22:00:31.106Z,0.70
2023-10-31T22:03:01.550Z,0.68
2023-10-31T22:05:31.991Z,1.30
2023-10-31T22:08:02.089Z,1.13
2023-10-31T22:10:32.335Z,0.63
2023-10-31T22:13:02.313Z,0.60
2023-10-31T22:15:32.784Z,0.75
2023-10-31T22:18:02.997Z,0.60
2023-10-31T22:20:33.524Z,0.60
2023-10-31T22:23:03.438Z,0.40
2023-10-31T22:25:35.310Z,0.60
2023-10-31T22:28:05.534Z,0.30
2023-10-31T22:30:37.984Z,0.57
2023-10-31T22:33:07.974Z,0.43
2023-10-31T22:35:38.841Z,0.40
2023-10-31T22:38:08.767Z,0.60
2023-10-31T22:40:39.225Z,0.90
2023-10-31T22:43:09.137Z,0.70
2023-10-31T22:45:39.740Z,0.35
2023-10-31T22:48:10.066Z,0.52
2023-10-31T22:50:41.245Z,0.73
2023-10-31T22:53:11.742Z,0.55
2023-10-31T22:55:43.164Z,0.63
2023-10-31T22:58:13.048Z,0.52
2023-10-31T23:00:43.082Z,0.55
2023-10-31T23:03:13.011Z,0.30
2023-10-31T23:05:45.038Z,0.35
2023-10-31T23:08:15.334Z,0.30
2023-10-31T23:10:46.116Z,0.60
2023-10-31T23:13:16.364Z,0.60
2023-10-31T23:15:46.929Z,0.50
2023-10-31T23:18:16.879Z,1.42
2023-10-31T23:20:47.271Z,0.40
2023-10-31T23:23:17.161Z,0.50
2023-10-31T23:25:48.047Z,0.50
2023-10-31T23:28:17.933Z,0.63
2023-10-31T23:30:54.792Z,0.57
2023-10-31T23:33:29.724Z,0.57
2023-10-31T23:36:01.109Z,0.63
2023-10-31T23:38:31.034Z,0.73
2023-10-31T23:41:01.595Z,0.57
2023-10-31T23:43:31.509Z,0.52
2023-10-31T23:46:01.387Z,0.63
2023-10-31T23:48:31.183Z,0.40
2023-10-31T23:51:00.997Z,0.70
2023-10-31T23:53:30.933Z,0.60
2023-10-31T23:56:00.824Z,0.68
2023-10-31T23:58:30.632Z,0.70
